createdAt,value
2018-09-06T00:00:35.264Z,101182.54
2018-09-06T00:03:11.425Z,101194.11
2018-09-06T00:05:48.100Z,101196.80
2018-09-06T00:08:24.230Z,101194.45
2018-09-06T00:11:00.397Z,101197.14
2018-09-06T00:13:36.425Z,101193.27
2018-09-06T00:16:12.862Z,101198.98
2018-09-06T00:18:48.941Z,101204.00
2018-09-06T00:21:25.273Z,101201.66
2018-09-06T00:24:01.305Z,101212.39
2018-09-06T00:26:37.276Z,101207.53
2018-09-06T00:29:13.298Z,101213.73
2018-09-06T00:31:49.281Z,101209.38
2018-09-06T00:34:25.284Z,101219.60
2018-09-06T00:37:02.009Z,101222.79
2018-09-06T00:39:38.120Z,101224.66
2018-09-06T00:42:14.292Z,101230.02
2018-09-06T00:44:50.313Z,101234.55
2018-09-06T00:47:26.106Z,101233.20
2018-09-06T00:50:02.227Z,101238.23
2018-09-06T00:52:38.112Z,101243.59
2018-09-06T00:55:14.367Z,101242.09
2018-09-06T00:57:51.390Z,101242.91
2018-09-06T01:00:27.391Z,101249.62
2018-09-06T01:03:03.318Z,101246.94
2018-09-06T01:05:39.112Z,101249.62
2018-09-06T01:08:16.053Z,101246.94
2018-09-06T01:10:52.085Z,101244.78
2018-09-06T01:13:28.005Z,101253.14
2018-09-06T01:16:04.145Z,101249.31
2018-09-06T01:18:40.321Z,101244.13
2018-09-06T01:21:16.321Z,101253.83
2018-09-06T01:25:46.538Z,101259.35
2018-09-06T01:28:23.973Z,101257.52
2018-09-06T01:31:00.924Z,101263.19
2018-09-06T01:33:37.314Z,101261.03
2018-09-06T01:36:16.278Z,101263.19
2018-09-06T01:38:52.118Z,101271.58
2018-09-06T01:41:28.247Z,101272.42
2018-09-06T01:44:04.009Z,101275.41
2018-09-06T01:48:28.533Z,101280.28
2018-09-06T01:51:04.851Z,101284.81
2018-09-06T01:53:41.681Z,101283.97
2018-09-06T01:56:18.329Z,101287.34
2018-09-06T01:58:54.131Z,101292.55
2018-09-06T02:01:31.133Z,101285.19
2018-09-06T02:04:07.345Z,101292.20
2018-09-06T02:06:43.364Z,101295.58
2018-09-06T02:09:19.485Z,101292.42
2018-09-06T02:11:55.933Z,101297.64
2018-09-06T02:14:32.042Z,101295.48
2018-09-06T02:17:08.140Z,101308.89
2018-09-06T02:19:45.123Z,101301.19
2018-09-06T02:22:21.114Z,101305.55
2018-09-06T02:24:57.427Z,101311.60
2018-09-06T02:27:33.609Z,101309.60
2018-09-06T02:30:10.063Z,101310.10
2018-09-06T02:32:46.731Z,101312.31
2018-09-06T02:35:23.127Z,101312.34
2018-09-06T02:37:59.266Z,101311.84
2018-09-06T02:40:42.490Z,101314.31
2018-09-06T02:43:18.945Z,101311.27
2018-09-06T02:45:55.324Z,101325.49
2018-09-06T02:48:35.319Z,101324.28
2018-09-06T02:51:15.531Z,101331.80
2018-09-06T02:53:51.224Z,101333.45
2018-09-06T02:56:27.333Z,101337.10
2018-09-06T02:59:03.158Z,101332.73
2018-09-06T03:01:39.172Z,101331.05
2018-09-06T03:04:15.434Z,101337.76
2018-09-06T03:06:51.493Z,101353.67
2018-09-06T03:12:07.715Z,101360.45
2018-09-06T03:14:44.279Z,101366.94
2018-09-06T03:17:20.542Z,101364.38
2018-09-06T03:19:56.827Z,101371.59
2018-09-06T03:22:33.162Z,101372.24
2018-09-06T03:25:09.522Z,101377.92
2018-09-06T03:27:45.534Z,101380.30
2018-09-06T03:30:21.909Z,101380.11
2018-09-06T03:32:58.066Z,101380.42
2018-09-06T03:35:34.124Z,101389.16
2018-09-06T03:38:10.310Z,101386.48
2018-09-06T03:40:47.743Z,101395.19
2018-09-06T03:43:24.338Z,101395.06
2018-09-06T03:46:00.379Z,101394.06
2018-09-06T03:48:36.385Z,101400.30
2018-09-06T03:51:12.525Z,101397.12
2018-09-06T03:53:48.362Z,101398.48
2018-09-06T03:56:25.159Z,101401.20
2018-09-06T03:59:02.149Z,101405.91
2018-09-06T04:01:38.366Z,101407.59
2018-09-06T04:04:14.541Z,101408.27
2018-09-06T04:06:50.407Z,101413.16
2018-09-06T04:09:26.418Z,101428.61
2018-09-06T04:12:02.595Z,101425.58
2018-09-06T04:14:38.642Z,101429.78
2018-09-06T04:17:15.184Z,101425.91
2018-09-06T04:19:51.186Z,101437.67
2018-09-06T04:22:27.209Z,101432.80
2018-09-06T04:25:03.184Z,101434.98
2018-09-06T04:27:39.180Z,101440.17
2018-09-06T04:30:15.186Z,101447.72
2018-09-06T04:32:51.210Z,101449.91
2018-09-06T04:37:17.172Z,101450.06
2018-09-06T04:39:53.517Z,101448.03
2018-09-06T04:42:29.562Z,101448.03
2018-09-06T04:45:06.383Z,101455.27
2018-09-06T04:47:43.107Z,101459.30
2018-09-06T04:50:19.194Z,101456.27
2018-09-06T04:52:55.520Z,101452.92
2018-09-06T04:55:31.617Z,101452.61
2018-09-06T04:58:07.544Z,101458.13
2018-09-06T05:00:43.846Z,101455.09
2018-09-06T05:03:20.180Z,101452.56
2018-09-06T05:05:56.009Z,101457.77
2018-09-06T05:08:32.199Z,101453.27
2018-09-06T05:11:08.376Z,101454.30
2018-09-06T05:13:44.444Z,101461.49
2018-09-06T05:16:20.409Z,101461.99
2018-09-06T05:18:56.425Z,101464.86
2018-09-06T05:21:32.598Z,101464.02
2018-09-06T05:24:08.850Z,101456.15
2018-09-06T05:26:45.173Z,101461.52
2018-09-06T05:29:21.393Z,101467.69
2018-09-06T05:31:57.497Z,101459.64
2018-09-06T05:34:33.562Z,101463.84
2018-09-06T05:37:10.397Z,101467.87
2018-09-06T05:39:46.574Z,101467.02
2018-09-06T05:42:23.185Z,101464.70
2018-09-06T05:44:59.334Z,101467.89
2018-09-06T05:47:35.550Z,101459.00
2018-09-06T05:50:11.969Z,101460.52
2018-09-06T05:52:47.809Z,101457.17
2018-09-06T05:55:24.189Z,101469.74
2018-09-06T05:58:00.247Z,101469.92
2018-09-06T06:00:40.037Z,101465.55
2018-09-06T06:03:16.447Z,101463.37
2018-09-06T06:05:52.601Z,101463.20
2018-09-06T06:08:43.410Z,101467.41
2018-09-06T06:11:20.219Z,101468.08
2018-09-06T06:13:56.424Z,101465.91
2018-09-06T06:16:32.399Z,101480.66
2018-09-06T06:19:08.421Z,101478.48
2018-09-06T06:21:44.442Z,101474.64
2018-09-06T06:24:20.456Z,101474.47
2018-09-06T06:26:56.419Z,101484.69
2018-09-06T06:29:32.432Z,101483.16
2018-09-06T06:32:08.489Z,101486.38
2018-09-06T06:34:44.845Z,101484.18
2018-09-06T06:37:20.839Z,101482.52
2018-09-06T06:39:57.278Z,101482.50
2018-09-06T06:42:33.431Z,101482.50
2018-09-06T06:45:09.242Z,101478.83
2018-09-06T06:47:45.415Z,101478.16
2018-09-06T06:50:21.427Z,101475.64
2018-09-06T06:52:57.413Z,101473.63
2018-09-06T06:55:33.530Z,101474.96
2018-09-06T06:58:09.518Z,101469.77
2018-09-06T07:00:46.195Z,101472.45
2018-09-06T07:03:22.172Z,101473.27
2018-09-06T07:05:58.094Z,101474.61
2018-09-06T07:08:34.139Z,101476.11
2018-09-06T07:11:10.181Z,101479.81
2018-09-06T07:13:46.181Z,101477.14
2018-09-06T07:16:22.258Z,101478.63
2018-09-06T07:18:58.426Z,101473.79
2018-09-06T07:21:35.575Z,101473.79
2018-09-06T07:24:11.949Z,101480.15
2018-09-06T07:26:48.049Z,101482.83
2018-09-06T07:29:25.049Z,101479.48
2018-09-06T07:32:01.886Z,101490.03
2018-09-06T07:34:38.225Z,101480.47
2018-09-06T07:37:14.638Z,101478.64
2018-09-06T07:39:50.951Z,101485.02
2018-09-06T07:42:27.264Z,101487.70
2018-09-06T07:45:03.290Z,101487.36
2018-09-06T07:47:39.255Z,101483.34
2018-09-06T07:50:15.283Z,101480.34
2018-09-06T07:52:52.442Z,101477.13
2018-09-06T07:55:28.466Z,101478.47
2018-09-06T07:58:04.666Z,101476.31
2018-09-06T08:00:43.651Z,101474.63
2018-09-06T08:03:20.604Z,101479.49
2018-09-06T08:05:57.434Z,101485.00
2018-09-06T08:08:33.448Z,101485.00
2018-09-06T08:11:09.995Z,101477.14
2018-09-06T08:13:46.417Z,101474.95
2018-09-06T08:16:23.050Z,101477.64
2018-09-06T08:19:00.508Z,101487.55
2018-09-06T08:21:36.825Z,101478.16
2018-09-06T08:24:13.081Z,101480.31
2018-09-06T08:26:49.449Z,101481.34
2018-09-06T08:29:25.743Z,101480.99
2018-09-06T08:32:02.483Z,101484.87
2018-09-06T08:34:38.489Z,101486.36
2018-09-06T08:37:14.441Z,101484.20
2018-09-06T08:39:50.637Z,101482.02
2018-09-06T08:42:26.894Z,101476.80
2018-09-06T08:45:03.332Z,101472.47
2018-09-06T08:47:40.267Z,101471.13
2018-09-06T08:50:16.401Z,101471.13
2018-09-06T08:52:52.823Z,101465.59
2018-09-06T08:55:28.763Z,101462.07
2018-09-06T08:58:05.847Z,101456.39
2018-09-06T09:00:44.484Z,101456.39
2018-09-06T09:03:20.419Z,101452.02
2018-09-06T09:05:59.705Z,101446.34
2018-09-06T09:08:35.654Z,101441.48
2018-09-06T09:11:11.876Z,101444.66
2018-09-06T09:13:48.273Z,101443.32
2018-09-06T09:16:24.299Z,101444.00
2018-09-06T09:19:00.521Z,101444.34
2018-09-06T09:21:36.915Z,101439.97
2018-09-06T09:24:13.074Z,101438.28
2018-09-06T09:26:50.054Z,101439.63
2018-09-06T09:29:26.289Z,101435.11
2018-09-06T09:32:02.621Z,101428.09
2018-09-06T09:34:38.316Z,101429.55
2018-09-06T09:37:14.689Z,101428.73
2018-09-06T09:39:51.652Z,101431.91
2018-09-06T09:42:28.058Z,101427.89
2018-09-06T09:45:04.446Z,101429.73
2018-09-06T09:47:40.634Z,101432.09
2018-09-06T09:52:52.322Z,101428.07
2018-09-06T09:55:28.782Z,101427.23
2018-09-06T09:58:05.332Z,101428.22
2018-09-06T10:00:44.422Z,101430.05
2018-09-06T10:03:24.514Z,101429.73
2018-09-06T10:06:06.320Z,101428.40
2018-09-06T10:08:46.566Z,101431.58
2018-09-06T10:11:22.482Z,101422.20
2018-09-06T10:13:58.535Z,101420.69
2018-09-06T10:16:34.673Z,101419.52
2018-09-06T10:19:11.645Z,101421.22
2018-09-06T10:21:48.176Z,101424.89
2018-09-06T10:24:24.335Z,101417.52
2018-09-06T10:27:00.498Z,101412.34
2018-09-06T10:29:36.655Z,101413.33
2018-09-06T10:32:12.549Z,101412.48
2018-09-06T10:34:48.899Z,101412.48
2018-09-06T10:37:25.050Z,101411.15
2018-09-06T10:40:01.180Z,101409.14
2018-09-06T10:42:38.275Z,101409.14
2018-09-06T10:45:14.494Z,101408.30
2018-09-06T10:47:50.586Z,101409.14
2018-09-06T10:50:26.550Z,101415.53
2018-09-06T10:53:02.710Z,101414.33
2018-09-06T10:55:39.322Z,101416.20
2018-09-06T10:58:15.485Z,101414.33
2018-09-06T11:00:52.649Z,101410.00
2018-09-06T11:03:29.210Z,101406.48
2018-09-06T11:06:05.653Z,101406.83
2018-09-06T11:08:42.157Z,101415.67
2018-09-06T11:11:18.323Z,101417.19
2018-09-06T11:13:54.561Z,101415.36
2018-09-06T11:16:31.089Z,101407.31
2018-09-06T11:19:07.178Z,101406.97
2018-09-06T11:21:43.772Z,101412.51
2018-09-06T11:24:20.334Z,101411.17
2018-09-06T11:26:57.329Z,101416.18
2018-09-06T11:29:33.638Z,101416.18
2018-09-06T11:32:10.062Z,101415.36
2018-09-06T11:34:46.283Z,101415.36
2018-09-06T11:37:22.453Z,101417.70
2018-09-06T11:39:58.743Z,101416.85
2018-09-06T11:42:35.343Z,101413.36
2018-09-06T11:45:12.530Z,101414.84
2018-09-06T11:47:48.801Z,101417.20
2018-09-06T11:50:25.181Z,101427.92
2018-09-06T11:53:01.519Z,101429.41
2018-09-06T11:55:38.355Z,101427.26
2018-09-06T11:58:14.245Z,101432.09
2018-09-06T12:00:50.688Z,101435.30
2018-09-06T12:03:27.006Z,101442.48
2018-09-06T12:06:03.104Z,101442.63
2018-09-06T12:08:39.342Z,101445.84
2018-09-06T12:11:15.516Z,101443.66
2018-09-06T12:13:51.714Z,101444.50
2018-09-06T12:16:28.485Z,101454.69
2018-09-06T12:19:04.748Z,101464.59
2018-09-06T12:21:40.830Z,101464.73
2018-09-06T12:24:16.710Z,101466.91
2018-09-06T12:26:54.353Z,101467.09
2018-09-06T12:29:30.582Z,101474.11
2018-09-06T12:32:06.598Z,101466.07
2018-09-06T12:34:43.216Z,101472.45
2018-09-06T12:37:19.197Z,101483.66
2018-09-06T12:39:55.214Z,101492.05
2018-09-06T12:42:31.711Z,101489.51
2018-09-06T12:45:08.262Z,101489.19
2018-09-06T12:47:46.809Z,101482.14
2018-09-06T12:50:23.269Z,101494.55
2018-09-06T12:52:59.479Z,101488.52
2018-09-06T12:55:36.004Z,101493.35
2018-09-06T12:58:12.253Z,101498.56
2018-09-06T13:00:48.718Z,101500.89
2018-09-06T13:03:25.333Z,101503.57
2018-09-06T13:06:02.665Z,101515.63
2018-09-06T13:08:39.536Z,101513.12
2018-09-06T13:11:15.954Z,101512.27
2018-09-06T13:13:52.313Z,101514.46
2018-09-06T13:16:28.524Z,101508.44
2018-09-06T13:19:04.769Z,101513.27
2018-09-06T13:21:40.872Z,101516.61
2018-09-06T13:24:18.345Z,101520.30
2018-09-06T13:26:54.401Z,101529.68
2018-09-06T13:29:30.289Z,101532.67
2018-09-06T13:32:06.552Z,101531.86
2018-09-06T13:34:42.721Z,101542.58
2018-09-06T13:37:18.717Z,101543.07
2018-09-06T13:39:55.134Z,101546.23
2018-09-06T13:42:31.185Z,101544.05
2018-09-06T13:45:07.581Z,101543.73
2018-09-06T13:47:44.018Z,101549.41
2018-09-06T13:50:20.829Z,101554.59
2018-09-06T13:52:57.349Z,101558.28
2018-09-06T13:55:33.568Z,101559.13
2018-09-06T13:58:10.062Z,101559.13
2018-09-06T14:00:46.619Z,101562.30
2018-09-06T14:03:22.578Z,101568.81
2018-09-06T14:05:58.612Z,101574.66
2018-09-06T14:08:35.507Z,101575.86
2018-09-06T14:11:12.549Z,101580.70
2018-09-06T14:13:49.590Z,101582.87
2018-09-06T14:16:25.395Z,101583.38
2018-09-06T14:19:01.760Z,101585.73
2018-09-06T14:21:38.232Z,101591.58
2018-09-06T14:24:14.623Z,101591.23
2018-09-06T14:26:50.806Z,101598.91
2018-09-06T14:29:26.743Z,101604.13
2018-09-06T14:32:02.596Z,101609.61
2018-09-06T14:34:40.348Z,101604.27
2018-09-06T14:37:16.772Z,101605.25
2018-09-06T14:39:52.659Z,101607.60
2018-09-06T14:42:28.626Z,101610.60
2018-09-06T14:45:04.884Z,101614.30
2018-09-06T14:47:41.396Z,101614.79
2018-09-06T14:50:17.515Z,101612.77
2018-09-06T14:52:53.585Z,101605.59
2018-09-06T14:55:29.519Z,101601.89
2018-09-06T14:58:05.737Z,101604.92
2018-09-06T15:00:42.065Z,101603.59
2018-09-06T15:03:19.983Z,101603.59
2018-09-06T15:05:56.603Z,101603.41
2018-09-06T15:08:32.403Z,101601.75
2018-09-06T15:11:08.401Z,101594.22
2018-09-06T15:13:44.441Z,101590.69
2018-09-06T15:16:20.808Z,101583.16
2018-09-06T15:18:57.391Z,101588.86
2018-09-06T15:21:33.121Z,101589.83
2018-09-06T15:24:20.793Z,101590.28
2018-09-06T15:26:58.316Z,101594.67
2018-09-06T15:29:36.954Z,101596.36
2018-09-06T15:32:13.771Z,101592.56
2018-09-06T15:34:49.828Z,101588.91
2018-09-06T15:37:25.778Z,101580.70
2018-09-06T15:40:02.381Z,101590.11
2018-09-06T15:42:38.762Z,101585.08
2018-09-06T15:45:14.637Z,101584.41
2018-09-06T15:47:51.002Z,101585.09
2018-09-06T15:50:27.177Z,101583.60
2018-09-06T15:53:03.148Z,101588.96
2018-09-06T15:55:39.611Z,101589.78
2018-09-06T15:58:15.699Z,101583.92
2018-09-06T16:00:52.061Z,101592.63
2018-09-06T16:03:28.578Z,101592.63
2018-09-06T16:06:05.322Z,101597.98
2018-09-06T16:08:42.655Z,101601.87
2018-09-06T16:11:18.818Z,101592.63
2018-09-06T16:13:56.074Z,101589.14
2018-09-06T16:16:33.140Z,101577.41
2018-09-06T16:19:10.399Z,101578.08
2018-09-06T16:21:46.797Z,101576.56
2018-09-06T16:24:23.341Z,101585.80
2018-09-06T16:26:59.833Z,101587.31
2018-09-06T16:29:35.701Z,101586.30
2018-09-06T16:32:11.757Z,101582.63
2018-09-06T16:34:48.441Z,101582.95
2018-09-06T16:37:24.664Z,101590.49
2018-09-06T16:40:01.219Z,101597.02
2018-09-06T16:42:37.272Z,101612.11
2018-09-06T16:45:13.870Z,101609.42
2018-09-06T16:47:50.421Z,101601.70
2018-09-06T16:50:26.613Z,101603.75
2018-09-06T16:53:02.837Z,101619.30
2018-09-06T16:55:39.201Z,101614.78
2018-09-06T16:58:15.745Z,101623.84
2018-09-06T17:00:52.393Z,101628.01
2018-09-06T17:03:28.561Z,101630.36
2018-09-06T17:06:04.434Z,101634.20
2018-09-06T17:08:40.437Z,101641.89
2018-09-06T17:11:16.472Z,101634.88
2018-09-06T17:13:52.487Z,101636.53
2018-09-06T17:16:28.598Z,101625.98
2018-09-06T17:19:04.634Z,101627.68
2018-09-06T17:21:40.574Z,101621.48
2018-09-06T17:24:16.831Z,101624.16
2018-09-06T17:26:52.694Z,101622.32
2018-09-06T17:29:28.997Z,101622.15
2018-09-06T17:32:05.617Z,101629.52
2018-09-06T17:34:41.625Z,101636.53
2018-09-06T17:37:17.782Z,101632.03
2018-09-06T17:39:55.365Z,101635.06
2018-09-06T17:42:33.945Z,101643.27
2018-09-06T17:45:11.441Z,101639.25
2018-09-06T17:47:47.604Z,101630.20
2018-09-06T17:50:23.645Z,101627.02
2018-09-06T17:53:00.082Z,101624.66
2018-09-06T17:55:36.631Z,101628.19
2018-09-06T17:58:12.817Z,101619.66
2018-09-06T18:01:55.265Z,101605.77
2018-09-06T18:04:32.267Z,101600.41
2018-09-06T18:07:08.438Z,101591.70
2018-09-06T18:09:44.693Z,101605.41
2018-09-06T18:12:22.201Z,101607.11
2018-09-06T18:14:58.414Z,101602.91
2018-09-06T18:17:34.716Z,101602.24
2018-09-06T18:20:11.881Z,101612.47
2018-09-06T18:22:48.340Z,101607.60
2018-09-06T18:25:24.855Z,101609.73
2018-09-06T18:28:01.641Z,101611.08
2018-09-06T18:30:37.692Z,101597.69
2018-09-06T18:33:13.675Z,101602.91
2018-09-06T18:35:50.462Z,101606.61
2018-09-06T18:38:26.734Z,101603.58
2018-09-06T18:41:03.838Z,101599.73
2018-09-06T18:43:40.076Z,101592.72
2018-09-06T18:46:17.593Z,101591.88
2018-09-06T18:48:53.657Z,101595.22
2018-09-06T18:51:30.451Z,101584.71
2018-09-06T18:54:06.680Z,101596.10
2018-09-06T18:56:43.642Z,101599.80
2018-09-06T18:59:20.257Z,101597.61
2018-09-06T19:01:56.653Z,101591.27
2018-09-06T19:04:33.656Z,101596.45
2018-09-06T19:07:10.718Z,101599.30
2018-09-06T19:09:46.811Z,101603.15
2018-09-06T19:12:22.921Z,101595.45
2018-09-06T19:14:58.699Z,101600.14
2018-09-06T19:17:35.484Z,101595.45
2018-09-06T19:20:11.608Z,101588.08
2018-09-06T19:22:47.485Z,101593.78
2018-09-06T19:25:23.689Z,101590.93
2018-09-06T19:28:00.484Z,101587.08
2018-09-06T19:30:37.405Z,101590.74
2018-09-06T19:33:13.486Z,101588.91
2018-09-06T19:35:49.937Z,101579.69
2018-09-06T19:38:26.498Z,101574.15
2018-09-06T19:41:02.824Z,101583.04
2018-09-06T19:43:41.098Z,101579.69
2018-09-06T19:46:17.496Z,101578.69
2018-09-06T19:48:55.269Z,101581.69
2018-09-06T19:51:31.672Z,101576.67
2018-09-06T19:54:07.930Z,101577.34
2018-09-06T19:56:44.221Z,101572.30
2018-09-06T19:59:20.355Z,101572.14
2018-09-06T20:01:56.762Z,101574.30
2018-09-06T20:04:32.737Z,101567.95
2018-09-06T20:07:09.220Z,101567.77
2018-09-06T20:09:46.659Z,101559.22
2018-09-06T20:12:22.623Z,101570.61
2018-09-06T20:15:02.491Z,101572.30
2018-09-06T20:17:38.718Z,101571.63
2018-09-06T20:20:14.913Z,101568.95
2018-09-06T20:22:51.180Z,101569.11
2018-09-06T20:25:27.244Z,101577.02
2018-09-06T20:28:03.583Z,101574.68
2018-09-06T20:30:40.343Z,101572.13
2018-09-06T20:33:16.252Z,101567.80
2018-09-06T20:35:52.646Z,101570.80
2018-09-06T20:38:28.514Z,101570.64
2018-09-06T20:41:04.713Z,101569.97
2018-09-06T20:43:41.121Z,101559.05
2018-09-06T20:46:17.519Z,101561.73
2018-09-06T20:48:54.731Z,101561.91
2018-09-06T20:51:30.886Z,101559.22
2018-09-06T20:54:07.214Z,101551.83
2018-09-06T20:56:43.508Z,101552.67
2018-09-06T20:59:19.803Z,101547.97
2018-09-06T21:01:56.764Z,101546.63
2018-09-06T21:04:33.235Z,101552.31
2018-09-06T21:07:09.526Z,101549.13
2018-09-06T21:09:45.557Z,101550.82
2018-09-06T21:12:22.272Z,101549.80
2018-09-06T21:14:59.922Z,101542.09
2018-09-06T21:17:35.733Z,101538.06
2018-09-06T21:20:12.500Z,101530.18
2018-09-06T21:22:49.241Z,101523.97
2018-09-06T21:25:58.696Z,101523.30
2018-09-06T21:28:34.941Z,101518.09
2018-09-06T21:31:11.437Z,101528.47
2018-09-06T21:33:47.702Z,101525.78
2018-09-06T21:36:24.429Z,101526.62
2018-09-06T21:39:00.707Z,101531.00
2018-09-06T21:41:36.761Z,101527.11
2018-09-06T21:44:13.265Z,101526.11
2018-09-06T21:46:49.865Z,101518.91
2018-09-06T21:49:25.907Z,101514.87
2018-09-06T21:52:02.438Z,101514.19
2018-09-06T21:55:55.227Z,101492.74
2018-09-06T21:58:31.705Z,101489.01
2018-09-06T22:01:07.717Z,101484.33
2018-09-06T22:03:48.289Z,101483.48
2018-09-06T22:06:24.541Z,101486.33
2018-09-06T22:09:00.746Z,101486.33
2018-09-06T22:11:36.668Z,101488.83
2018-09-06T22:14:12.881Z,101483.27
2018-09-06T22:16:48.925Z,101471.54
2018-09-06T22:19:25.233Z,101473.87
2018-09-06T22:22:01.319Z,101471.05
2018-09-06T22:24:42.125Z,101472.70
2018-09-06T22:27:18.436Z,101467.98
2018-09-06T22:29:54.673Z,101473.36
2018-09-06T22:32:30.563Z,101464.30
2018-09-06T22:35:07.127Z,101463.46
2018-09-06T22:37:43.117Z,101462.96
2018-09-06T22:40:19.390Z,101464.96
2018-09-06T22:42:55.749Z,101457.22
2018-09-06T22:45:31.766Z,101448.85
2018-09-06T22:48:08.186Z,101450.51
2018-09-06T22:50:44.753Z,101446.83
2018-09-06T22:53:20.885Z,101439.27
2018-09-06T22:55:57.260Z,101443.30
2018-09-06T22:58:33.397Z,101447.51
2018-09-06T23:01:10.386Z,101449.66
2018-09-06T23:03:47.403Z,101449.98
2018-09-06T23:06:23.687Z,101441.80
2018-09-06T23:08:59.615Z,101436.43
2018-09-06T23:11:36.737Z,101441.27
2018-09-06T23:14:14.395Z,101436.43
2018-09-06T23:16:50.573Z,101435.74
2018-09-06T23:19:27.029Z,101429.84
2018-09-06T23:22:03.181Z,101427.50
2018-09-06T23:24:39.340Z,101422.12
2018-09-06T23:27:15.750Z,101420.44
2018-09-06T23:29:51.742Z,101419.45
2018-09-06T23:32:27.646Z,101418.59
2018-09-06T23:35:03.851Z,101422.12
2018-09-06T23:37:40.317Z,101414.54
2018-09-06T23:40:16.536Z,101414.54
2018-09-06T23:42:52.726Z,101405.67
2018-09-06T23:45:28.498Z,101409.39
2018-09-06T23:48:04.374Z,101409.05
2018-09-06T23:50:40.045Z,101402.98
2018-09-06T23:53:17.085Z,101400.49
2018-09-06T23:55:58.079Z,101399.15
2018-09-06T23:58:33.865Z,101400.15
